createdAt,value
2023-05-11T00:00:53.821Z,71.99
2023-05-11T00:01:53.860Z,71.64
2023-05-11T00:02:53.968Z,71.22
2023-05-11T00:03:54.039Z,71.11
2023-05-11T00:04:53.902Z,71.21
2023-05-11T00:05:53.917Z,71.31
2023-05-11T00:06:53.977Z,71.98
2023-05-11T00:07:54.007Z,72.36
2023-05-11T00:08:54.035Z,70.98
2023-05-11T00:09:54.048Z,71.43
2023-05-11T00:10:54.099Z,71.73
2023-05-11T00:11:54.131Z,72.22
2023-05-11T00:12:54.201Z,71.09
2023-05-11T00:13:54.220Z,70.77
2023-05-11T00:14:54.253Z,71.49
2023-05-11T00:15:54.297Z,72.02
2023-05-11T00:16:54.287Z,72.89
2023-05-11T00:17:54.402Z,73.27
2023-05-11T00:18:54.760Z,73.16
2023-05-11T00:19:54.380Z,73.30
2023-05-11T00:20:54.387Z,73.47
2023-05-11T00:21:54.423Z,73.22
2023-05-11T00:22:54.472Z,72.91
2023-05-11T00:23:54.473Z,72.67
2023-05-11T00:24:54.507Z,72.40
2023-05-11T00:25:54.555Z,72.13
2023-05-11T00:26:54.566Z,72.48
2023-05-11T00:27:54.568Z,72.00
2023-05-11T00:28:54.648Z,71.90
2023-05-11T00:29:54.659Z,71.37
2023-05-11T00:30:54.731Z,70.80
2023-05-11T00:31:54.831Z,71.08
2023-05-11T00:32:54.782Z,71.03
2023-05-11T00:33:54.850Z,71.14
2023-05-11T00:34:54.851Z,71.28
2023-05-11T00:35:54.857Z,71.72
2023-05-11T00:36:54.909Z,72.23
2023-05-11T00:37:54.918Z,72.11
2023-05-11T00:38:54.973Z,71.81
2023-05-11T00:39:54.998Z,72.36
2023-05-11T00:40:55.006Z,72.51
2023-05-11T00:41:55.026Z,72.32
2023-05-11T00:42:55.032Z,72.59
2023-05-11T00:43:55.043Z,71.95
2023-05-11T00:44:55.090Z,72.61
2023-05-11T00:45:55.128Z,72.12
2023-05-11T00:46:55.179Z,71.48
2023-05-11T00:47:55.219Z,71.28
2023-05-11T00:48:55.183Z,71.42
2023-05-11T00:49:55.263Z,71.43
2023-05-11T00:50:55.276Z,72.13
2023-05-11T00:51:55.289Z,71.75
2023-05-11T00:52:55.313Z,72.44
2023-05-11T00:53:55.342Z,72.69
2023-05-11T00:54:55.383Z,72.97
2023-05-11T00:55:55.394Z,72.80
2023-05-11T00:56:55.438Z,72.93
2023-05-11T00:57:55.501Z,72.95
2023-05-11T00:58:55.525Z,72.88
2023-05-11T00:59:55.514Z,73.06
2023-05-11T01:00:55.583Z,73.03
2023-05-11T01:01:55.645Z,72.38
2023-05-11T01:02:55.824Z,72.14
2023-05-11T01:03:55.697Z,72.19
2023-05-11T01:04:55.692Z,73.13
2023-05-11T01:05:55.722Z,72.81
2023-05-11T01:06:55.774Z,72.69
2023-05-11T01:07:55.785Z,72.77
2023-05-11T01:08:55.819Z,72.59
2023-05-11T01:09:55.836Z,72.61
2023-05-11T01:10:55.857Z,72.86
2023-05-11T01:11:55.894Z,72.75
2023-05-11T01:12:55.907Z,72.56
2023-05-11T01:13:55.962Z,72.62
2023-05-11T01:14:55.991Z,72.45
2023-05-11T01:15:56.028Z,72.56
2023-05-11T01:16:56.207Z,72.17
2023-05-11T01:17:56.128Z,72.39
2023-05-11T01:18:56.216Z,71.91
2023-05-11T01:19:56.150Z,71.60
2023-05-11T01:20:56.176Z,71.43
2023-05-11T01:21:56.221Z,70.89
2023-05-11T01:22:56.223Z,71.11
2023-05-11T01:23:56.217Z,70.72
2023-05-11T01:24:56.248Z,71.39
2023-05-11T01:25:56.241Z,70.92
2023-05-11T01:26:56.296Z,71.13
2023-05-11T01:27:56.342Z,71.30
2023-05-11T01:28:56.367Z,71.07
2023-05-11T01:29:57.073Z,71.22
2023-05-11T01:30:56.437Z,71.59
2023-05-11T01:31:56.533Z,71.95
2023-05-11T01:32:56.526Z,71.48
2023-05-11T01:33:56.546Z,71.09
2023-05-11T01:34:56.558Z,70.21
2023-05-11T01:35:56.603Z,70.56
2023-05-11T01:36:56.631Z,70.57
2023-05-11T01:37:56.624Z,70.44
2023-05-11T01:38:56.665Z,70.50
2023-05-11T01:39:56.721Z,70.33
2023-05-11T01:40:56.732Z,70.71
2023-05-11T01:41:56.780Z,71.05
2023-05-11T01:42:56.794Z,70.83
2023-05-11T01:43:56.787Z,70.41
2023-05-11T01:44:56.829Z,70.38
2023-05-11T01:45:56.877Z,69.78
2023-05-11T01:46:56.871Z,69.99
2023-05-11T01:47:56.950Z,70.03
2023-05-11T01:48:56.967Z,70.12
2023-05-11T01:49:56.971Z,70.03
2023-05-11T01:50:56.974Z,70.25
2023-05-11T01:51:57.057Z,70.26
2023-05-11T01:52:57.074Z,70.81
2023-05-11T01:53:57.108Z,71.67
2023-05-11T01:54:57.132Z,71.64
2023-05-11T01:55:57.195Z,71.89
2023-05-11T01:56:57.201Z,71.62
2023-05-11T01:57:57.251Z,72.33
2023-05-11T01:58:57.243Z,71.68
2023-05-11T01:59:57.308Z,71.60
2023-05-11T02:00:57.328Z,72.31
2023-05-11T02:01:57.581Z,72.44
2023-05-11T02:02:57.462Z,72.68
2023-05-11T02:03:57.447Z,72.31
2023-05-11T02:04:57.405Z,72.14
2023-05-11T02:05:57.461Z,72.61
2023-05-11T02:06:57.498Z,72.40
2023-05-11T02:07:57.547Z,72.47
2023-05-11T02:08:57.556Z,72.55
2023-05-11T02:09:57.607Z,72.93
2023-05-11T02:10:57.644Z,73.32
2023-05-11T02:11:57.674Z,72.69
2023-05-11T02:12:57.665Z,72.93
2023-05-11T02:13:57.726Z,72.65
2023-05-11T02:14:57.757Z,72.51
2023-05-11T02:15:57.810Z,72.66
2023-05-11T02:16:57.824Z,72.66
2023-05-11T02:17:57.899Z,72.58
2023-05-11T02:18:57.936Z,72.00
2023-05-11T02:19:57.873Z,72.12
2023-05-11T02:20:57.899Z,72.05
2023-05-11T02:21:57.931Z,72.43
2023-05-11T02:22:57.959Z,72.27
2023-05-11T02:23:58.026Z,72.21
2023-05-11T02:24:58.009Z,72.07
2023-05-11T02:25:58.035Z,71.88
2023-05-11T02:26:58.068Z,71.88
2023-05-11T02:27:58.103Z,71.84
2023-05-11T02:28:58.148Z,71.94
2023-05-11T02:29:58.161Z,71.57
2023-05-11T02:30:58.244Z,71.93
2023-05-11T02:31:58.248Z,71.98
2023-05-11T02:32:58.319Z,71.67
2023-05-11T02:33:58.273Z,71.80
2023-05-11T02:34:58.351Z,71.45
2023-05-11T02:35:58.369Z,71.64
2023-05-11T02:36:58.419Z,72.05
2023-05-11T02:37:58.414Z,72.37
2023-05-11T02:38:58.425Z,71.57
2023-05-11T02:39:58.483Z,71.42
2023-05-11T02:40:58.493Z,71.51
2023-05-11T02:41:58.487Z,71.70
2023-05-11T02:42:58.528Z,71.99
2023-05-11T02:43:58.610Z,70.69
2023-05-11T02:44:58.628Z,70.76
2023-05-11T02:45:58.659Z,71.40
2023-05-11T02:46:58.784Z,71.89
2023-05-11T02:47:58.769Z,72.00
2023-05-11T02:48:58.741Z,71.97
2023-05-11T02:49:58.795Z,71.85
2023-05-11T02:50:58.821Z,71.82
2023-05-11T02:51:58.871Z,70.76
2023-05-11T02:52:58.864Z,71.57
2023-05-11T02:53:58.899Z,72.05
2023-05-11T02:54:58.948Z,71.76
2023-05-11T02:55:58.964Z,72.39
2023-05-11T02:56:59.002Z,72.63
2023-05-11T02:57:59.067Z,72.39
2023-05-11T02:58:59.053Z,72.66
2023-05-11T02:59:59.094Z,72.72
2023-05-11T03:00:59.106Z,72.41
2023-05-11T03:01:59.237Z,72.09
2023-05-11T03:02:59.263Z,72.34
2023-05-11T03:03:59.226Z,72.26
2023-05-11T03:04:59.257Z,72.67
2023-05-11T03:05:59.307Z,72.68
2023-05-11T03:06:59.321Z,72.53
2023-05-11T03:07:59.320Z,72.77
2023-05-11T03:08:59.369Z,72.89
2023-05-11T03:09:59.415Z,72.67
2023-05-11T03:10:59.430Z,72.83
2023-05-11T03:11:59.498Z,72.79
2023-05-11T03:12:59.574Z,72.89
2023-05-11T03:13:59.550Z,72.65
2023-05-11T03:14:59.588Z,72.68
2023-05-11T03:15:59.632Z,72.61
2023-05-11T03:16:59.716Z,72.67
2023-05-11T03:17:59.736Z,72.46
2023-05-11T03:18:59.816Z,72.38
2023-05-11T03:19:59.755Z,72.53
2023-05-11T03:20:59.797Z,72.49
2023-05-11T03:21:59.845Z,71.74
2023-05-11T03:22:59.884Z,71.10
2023-05-11T03:23:59.877Z,71.01
2023-05-11T03:24:59.938Z,71.20
2023-05-11T03:25:59.962Z,71.44
2023-05-11T03:27:00.006Z,71.72
2023-05-11T03:28:00.006Z,71.61
2023-05-11T03:29:00.072Z,71.28
2023-05-11T03:30:00.078Z,71.72
2023-05-11T03:31:00.114Z,71.61
2023-05-11T03:32:00.151Z,71.71
2023-05-11T03:33:00.243Z,71.51
2023-05-11T03:34:00.188Z,71.78
2023-05-11T03:35:00.213Z,71.53
2023-05-11T03:36:00.227Z,71.11
2023-05-11T03:37:00.281Z,71.69
2023-05-11T03:38:00.286Z,72.07
2023-05-11T03:39:00.328Z,71.89
2023-05-11T03:40:00.347Z,71.58
2023-05-11T03:41:00.400Z,71.44
2023-05-11T03:42:00.405Z,72.13
2023-05-11T03:43:00.454Z,72.44
2023-05-11T03:44:00.474Z,72.60
2023-05-11T03:45:00.501Z,72.20
2023-05-11T03:46:00.563Z,72.22
2023-05-11T03:47:00.577Z,72.63
2023-05-11T03:48:00.676Z,72.74
2023-05-11T03:49:00.619Z,73.02
2023-05-11T03:50:00.666Z,73.16
2023-05-11T03:51:00.759Z,73.17
2023-05-11T03:52:00.717Z,73.17
2023-05-11T03:53:00.740Z,73.32
2023-05-11T03:54:00.818Z,72.77
2023-05-11T03:55:00.851Z,72.70
2023-05-11T03:56:00.867Z,73.07
2023-05-11T03:57:00.903Z,72.91
2023-05-11T03:58:02.394Z,73.04
2023-05-11T03:59:00.922Z,72.74
2023-05-11T04:00:00.910Z,72.71
2023-05-11T04:01:00.929Z,72.87
2023-05-11T04:02:00.893Z,72.82
2023-05-11T04:03:01.068Z,72.73
2023-05-11T04:04:01.017Z,72.76
2023-05-11T04:05:00.897Z,72.48
2023-05-11T04:06:00.888Z,72.65
2023-05-11T04:07:00.911Z,72.99
2023-05-11T04:08:00.876Z,72.90
2023-05-11T04:09:00.879Z,72.10
2023-05-11T04:10:00.904Z,72.60
2023-05-11T04:11:00.844Z,72.76
2023-05-11T04:12:00.824Z,72.32
2023-05-11T04:13:00.844Z,72.33
2023-05-11T04:14:00.826Z,72.36
2023-05-11T04:15:00.886Z,72.36
2023-05-11T04:16:00.851Z,72.41
2023-05-11T04:17:00.783Z,72.29
2023-05-11T04:18:00.872Z,72.36
2023-05-11T04:19:00.903Z,72.43
2023-05-11T04:20:00.863Z,72.24
2023-05-11T04:21:00.772Z,72.23
2023-05-11T04:22:00.777Z,72.21
2023-05-11T04:23:00.792Z,72.42
2023-05-11T04:24:00.764Z,72.42
2023-05-11T04:25:00.765Z,72.32
2023-05-11T04:26:00.774Z,72.23
2023-05-11T04:27:00.752Z,71.96
2023-05-11T04:28:00.744Z,72.00
2023-05-11T04:29:00.762Z,72.16
2023-05-11T04:30:00.729Z,72.08
2023-05-11T04:31:00.796Z,71.93
2023-05-11T04:32:00.873Z,71.68
2023-05-11T04:33:00.778Z,71.86
2023-05-11T04:34:00.732Z,71.91
2023-05-11T04:35:00.673Z,72.39
2023-05-11T04:36:00.736Z,72.35
2023-05-11T04:37:00.673Z,72.90
2023-05-11T04:38:00.686Z,72.74
2023-05-11T04:39:00.685Z,72.29
2023-05-11T04:40:00.656Z,71.85
2023-05-11T04:41:00.668Z,72.07
2023-05-11T04:42:00.667Z,71.86
2023-05-11T04:43:00.643Z,72.27
2023-05-11T04:44:00.651Z,72.03
2023-05-11T04:45:00.636Z,72.59
2023-05-11T04:46:00.634Z,72.92
2023-05-11T04:47:00.731Z,72.85
2023-05-11T04:48:00.661Z,72.78
2023-05-11T04:49:00.620Z,72.76
2023-05-11T04:50:00.635Z,72.89
2023-05-11T04:51:00.614Z,72.94
2023-05-11T04:52:00.608Z,73.18
2023-05-11T04:53:00.625Z,73.07
2023-05-11T04:54:00.660Z,72.85
2023-05-11T04:55:00.700Z,72.96
2023-05-11T04:56:00.699Z,72.65
2023-05-11T04:57:00.688Z,72.70
2023-05-11T04:58:00.769Z,72.90
2023-05-11T04:59:01.611Z,73.39
2023-05-11T05:00:00.819Z,73.55
2023-05-11T05:01:00.897Z,73.84
2023-05-11T05:02:00.895Z,73.82
2023-05-11T05:03:00.960Z,73.74
2023-05-11T05:04:00.922Z,73.10
2023-05-11T05:05:01.004Z,73.19
2023-05-11T05:06:00.978Z,73.21
2023-05-11T05:07:00.999Z,72.45
2023-05-11T05:08:01.033Z,72.53
2023-05-11T05:09:01.062Z,72.97
2023-05-11T05:10:01.058Z,72.79
2023-05-11T05:11:01.119Z,72.67
2023-05-11T05:12:01.108Z,72.66
2023-05-11T05:13:01.273Z,72.33
2023-05-11T05:14:01.217Z,72.15
2023-05-11T05:15:01.184Z,72.04
2023-05-11T05:16:01.249Z,72.32
2023-05-11T05:17:01.271Z,71.92
2023-05-11T05:18:01.282Z,71.75
2023-05-11T05:19:01.479Z,71.73
2023-05-11T05:20:01.420Z,71.69
2023-05-11T05:21:01.339Z,71.36
2023-05-11T05:22:01.453Z,70.94
2023-05-11T05:23:01.424Z,71.01
2023-05-11T05:24:01.478Z,71.18
2023-05-11T05:25:01.503Z,71.47
2023-05-11T05:26:01.564Z,71.45
2023-05-11T05:27:01.562Z,71.34
2023-05-11T05:28:01.604Z,71.69
2023-05-11T05:29:01.610Z,71.64
2023-05-11T05:30:01.698Z,71.31
2023-05-11T05:31:01.762Z,71.59
2023-05-11T05:32:01.754Z,71.46
2023-05-11T05:33:01.781Z,71.64
2023-05-11T05:34:01.810Z,70.64
2023-05-11T05:35:01.869Z,70.84
2023-05-11T05:36:01.860Z,70.57
2023-05-11T05:37:01.870Z,70.00
2023-05-11T05:38:01.933Z,70.04
2023-05-11T05:39:01.961Z,69.29
2023-05-11T05:40:01.956Z,69.07
2023-05-11T05:41:01.995Z,69.09
2023-05-11T05:42:02.015Z,69.48
2023-05-11T05:43:02.075Z,68.27
2023-05-11T05:44:02.140Z,68.34
2023-05-11T05:45:02.186Z,68.47
2023-05-11T05:46:02.243Z,68.91
2023-05-11T05:47:02.201Z,68.99
2023-05-11T05:48:02.314Z,69.46
2023-05-11T05:49:02.280Z,69.48
2023-05-11T05:50:02.319Z,69.74
2023-05-11T05:51:02.320Z,69.32
2023-05-11T05:52:02.362Z,68.04
2023-05-11T05:53:02.389Z,68.62
2023-05-11T05:54:02.407Z,69.26
2023-05-11T05:55:02.444Z,69.38
2023-05-11T05:56:02.514Z,68.74
2023-05-11T05:57:02.539Z,68.01
2023-05-11T05:58:02.574Z,68.87
2023-05-11T05:59:02.582Z,69.02
2023-05-11T06:00:02.641Z,68.64
2023-05-11T06:01:03.168Z,68.52
2023-05-11T06:02:02.664Z,68.71
2023-05-11T06:03:02.766Z,68.54
2023-05-11T06:04:02.828Z,68.53
2023-05-11T06:05:02.902Z,68.44
2023-05-11T06:06:02.766Z,68.73
2023-05-11T06:07:02.798Z,68.61
2023-05-11T06:08:10.534Z,68.33
2023-05-11T06:09:03.874Z,68.85
2023-05-11T06:10:02.870Z,68.88
2023-05-11T06:11:02.843Z,69.28
2023-05-11T06:12:02.812Z,69.13
2023-05-11T06:13:02.820Z,68.67
2023-05-11T06:14:02.799Z,68.65
2023-05-11T06:15:02.792Z,68.96
2023-05-11T06:16:02.815Z,68.58
2023-05-11T06:17:02.806Z,68.15
2023-05-11T06:18:02.831Z,68.16
2023-05-11T06:19:02.956Z,67.90
2023-05-11T06:20:02.752Z,68.71
2023-05-11T06:21:02.752Z,69.08
2023-05-11T06:22:04.373Z,69.61
2023-05-11T06:23:02.713Z,69.13
2023-05-11T06:24:02.734Z,69.41
2023-05-11T06:25:02.693Z,69.09
2023-05-11T06:26:02.749Z,68.94
2023-05-11T06:27:02.738Z,68.93
2023-05-11T06:28:02.717Z,69.29
2023-05-11T06:29:02.732Z,69.41
2023-05-11T06:30:02.695Z,69.35
2023-05-11T06:31:02.714Z,69.24
2023-05-11T06:32:02.737Z,69.06
2023-05-11T06:33:02.736Z,68.80
2023-05-11T06:34:02.687Z,68.75
2023-05-11T06:35:02.735Z,68.95
2023-05-11T06:36:04.842Z,68.69
2023-05-11T06:37:02.628Z,68.94
2023-05-11T06:38:02.659Z,69.07
2023-05-11T06:39:02.731Z,69.33
2023-05-11T06:40:02.743Z,69.38
2023-05-11T06:41:02.781Z,68.90
2023-05-11T06:42:05.094Z,69.02
2023-05-11T06:43:02.763Z,69.54
2023-05-11T06:44:02.747Z,68.83
2023-05-11T06:45:02.854Z,68.98
2023-05-11T06:46:02.793Z,69.00
2023-05-11T06:47:02.742Z,68.96
2023-05-11T06:48:02.724Z,68.91
2023-05-11T06:49:02.730Z,69.06
2023-05-11T06:50:02.723Z,69.35
2023-05-11T06:51:02.699Z,69.29
2023-05-11T06:52:02.660Z,68.48
2023-05-11T06:53:02.671Z,67.92
2023-05-11T06:54:02.681Z,68.22
2023-05-11T06:55:02.688Z,67.90
2023-05-11T06:56:02.664Z,68.56
2023-05-11T06:57:02.677Z,68.79
2023-05-11T06:58:02.630Z,68.60
2023-05-11T06:59:02.666Z,68.36
2023-05-11T07:00:02.692Z,68.33
2023-05-11T07:01:02.673Z,68.90
2023-05-11T07:02:02.657Z,68.60
2023-05-11T07:03:02.692Z,68.85
2023-05-11T07:04:02.622Z,68.99
2023-05-11T07:05:02.668Z,68.57
2023-05-11T07:06:02.643Z,68.42
2023-05-11T07:07:02.598Z,68.84
2023-05-11T07:08:02.571Z,69.33
2023-05-11T07:09:02.595Z,69.21
2023-05-11T07:10:02.610Z,69.61
2023-05-11T07:11:02.573Z,69.56
2023-05-11T07:12:02.557Z,69.92
2023-05-11T07:13:02.580Z,70.14
2023-05-11T07:14:02.524Z,69.75
2023-05-11T07:15:02.529Z,69.63
2023-05-11T07:16:02.546Z,69.68
2023-05-11T07:17:02.625Z,69.44
2023-05-11T07:18:02.535Z,69.33
2023-05-11T07:19:02.534Z,69.25
2023-05-11T07:20:02.517Z,69.11
2023-05-11T07:21:02.490Z,68.72
2023-05-11T07:22:02.586Z,69.43
2023-05-11T07:23:02.563Z,69.04
2023-05-11T07:24:02.596Z,68.98
2023-05-11T07:25:02.638Z,70.13
2023-05-11T07:26:02.651Z,70.30
2023-05-11T07:27:02.671Z,69.66
2023-05-11T07:28:02.700Z,70.03
2023-05-11T07:29:02.719Z,69.49
2023-05-11T07:30:02.720Z,70.01
2023-05-11T07:31:02.772Z,69.71
2023-05-11T07:32:02.797Z,70.28
2023-05-11T07:33:03.206Z,70.72
2023-05-11T07:34:02.816Z,70.16
2023-05-11T07:35:02.925Z,69.96
2023-05-11T07:36:02.937Z,69.42
2023-05-11T07:37:02.935Z,69.28
2023-05-11T07:38:03.017Z,69.38
2023-05-11T07:39:03.050Z,69.27
2023-05-11T07:40:03.043Z,69.11
2023-05-11T07:41:04.677Z,69.40
2023-05-11T07:42:03.069Z,69.26
2023-05-11T07:43:03.096Z,68.91
2023-05-11T07:44:03.119Z,69.45
2023-05-11T07:45:03.059Z,69.76
2023-05-11T07:46:03.131Z,69.47
2023-05-11T07:47:03.059Z,69.53
2023-05-11T07:48:03.057Z,69.69
2023-05-11T07:49:14.380Z,69.93
2023-05-11T07:50:04.020Z,70.09
2023-05-11T07:51:03.075Z,69.73
2023-05-11T07:52:03.019Z,69.77
2023-05-11T07:53:03.012Z,69.60
2023-05-11T07:54:03.037Z,69.61
2023-05-11T07:55:02.983Z,69.45
2023-05-11T07:56:02.984Z,68.81
2023-05-11T07:57:02.993Z,68.65
2023-05-11T07:58:03.015Z,69.47
2023-05-11T07:59:02.969Z,69.59
2023-05-11T08:00:02.984Z,70.04
2023-05-11T08:01:02.952Z,70.27
2023-05-11T08:02:03.018Z,70.28
2023-05-11T08:03:03.017Z,70.45
2023-05-11T08:04:02.977Z,70.25
2023-05-11T08:05:02.928Z,70.06
2023-05-11T08:06:02.980Z,69.57
2023-05-11T08:07:03.012Z,69.87
2023-05-11T08:08:03.058Z,69.39
2023-05-11T08:09:03.089Z,69.82
2023-05-11T08:10:03.199Z,69.62
2023-05-11T08:11:03.188Z,69.97
2023-05-11T08:12:03.188Z,69.53
2023-05-11T08:13:03.231Z,69.18
2023-05-11T08:14:03.226Z,69.61
2023-05-11T08:15:03.265Z,69.64
2023-05-11T08:16:03.333Z,69.32
2023-05-11T08:17:03.279Z,69.33
2023-05-11T08:18:03.343Z,69.91
2023-05-11T08:19:03.389Z,70.07
2023-05-11T08:20:03.410Z,69.98
2023-05-11T08:21:03.378Z,70.37
2023-05-11T08:22:03.435Z,70.44
2023-05-11T08:23:03.483Z,69.69
2023-05-11T08:24:03.466Z,69.79
2023-05-11T08:25:03.471Z,69.77
2023-05-11T08:26:03.518Z,69.73
2023-05-11T08:27:03.567Z,69.91
2023-05-11T08:28:03.551Z,69.36
2023-05-11T08:29:03.599Z,69.82
2023-05-11T08:30:03.613Z,69.94
2023-05-11T08:31:03.603Z,69.66
2023-05-11T08:32:03.683Z,69.61
2023-05-11T08:33:10.397Z,69.50
2023-05-11T08:34:09.813Z,69.73
2023-05-11T08:35:04.792Z,69.59
2023-05-11T08:36:03.604Z,69.58
2023-05-11T08:37:03.628Z,69.50
2023-05-11T08:38:03.661Z,69.57
2023-05-11T08:39:03.619Z,70.30
2023-05-11T08:40:03.609Z,69.72
2023-05-11T08:41:03.630Z,69.71
2023-05-11T08:42:03.604Z,69.94
2023-05-11T08:43:03.592Z,69.48
2023-05-11T08:44:03.578Z,69.64
2023-05-11T08:45:03.597Z,69.65
2023-05-11T08:46:03.614Z,69.76
2023-05-11T08:47:21.263Z,69.40
2023-05-11T08:48:04.617Z,69.16
2023-05-11T08:49:03.539Z,69.25
2023-05-11T08:50:03.556Z,69.42
2023-05-11T08:51:03.549Z,68.94
2023-05-11T08:52:03.559Z,69.55
2023-05-11T08:53:03.505Z,69.37
2023-05-11T08:54:03.503Z,69.30
2023-05-11T08:55:03.523Z,69.91
2023-05-11T08:56:03.502Z,69.84
2023-05-11T08:57:03.492Z,69.63
2023-05-11T08:58:03.461Z,69.37
2023-05-11T08:59:03.476Z,69.27
2023-05-11T09:00:03.525Z,69.53
2023-05-11T09:01:03.551Z,69.66
2023-05-11T09:02:03.532Z,70.06
2023-05-11T09:03:03.685Z,69.66
2023-05-11T09:04:03.668Z,68.63
2023-05-11T09:05:03.773Z,68.59
2023-05-11T09:06:03.748Z,68.42
2023-05-11T09:07:03.764Z,68.57
2023-05-11T09:08:03.768Z,68.78
2023-05-11T09:09:03.820Z,69.55
2023-05-11T09:10:03.842Z,69.53
2023-05-11T09:11:03.896Z,69.02
2023-05-11T09:12:03.915Z,68.60
2023-05-11T09:13:03.974Z,68.85
2023-05-11T09:14:03.992Z,68.97
2023-05-11T09:15:03.992Z,68.78
2023-05-11T09:16:04.170Z,68.24
2023-05-11T09:17:04.193Z,68.99
2023-05-11T09:18:04.072Z,69.03
2023-05-11T09:19:04.233Z,68.65
2023-05-11T09:20:04.080Z,68.88
2023-05-11T09:21:04.165Z,68.58
2023-05-11T09:22:04.170Z,68.54
2023-05-11T09:23:04.195Z,68.69
2023-05-11T09:24:04.256Z,68.16
2023-05-11T09:25:04.300Z,67.92
2023-05-11T09:26:04.332Z,68.02
2023-05-11T09:27:04.320Z,68.32
2023-05-11T09:28:04.378Z,68.36
2023-05-11T09:29:04.435Z,68.89
2023-05-11T09:30:04.430Z,69.30
2023-05-11T09:31:04.512Z,68.48
2023-05-11T09:32:04.449Z,68.66
2023-05-11T09:33:04.539Z,68.69
2023-05-11T09:34:04.559Z,67.96
2023-05-11T09:35:04.658Z,67.53
2023-05-11T09:36:04.608Z,67.75
2023-05-11T09:37:04.674Z,68.02
2023-05-11T09:38:05.061Z,67.45
2023-05-11T09:39:04.732Z,68.17
2023-05-11T09:41:04.755Z,68.36
2023-05-11T09:42:04.781Z,68.60
2023-05-11T09:43:04.755Z,68.31
2023-05-11T09:44:04.732Z,67.27
2023-05-11T09:45:04.710Z,67.12
2023-05-11T09:46:04.790Z,67.26
2023-05-11T09:47:04.683Z,67.08
2023-05-11T09:48:04.819Z,67.48
2023-05-11T09:49:04.700Z,67.24
2023-05-11T09:50:04.689Z,67.10
2023-05-11T09:51:04.715Z,67.17
2023-05-11T09:52:04.673Z,66.88
2023-05-11T09:53:04.681Z,67.27
2023-05-11T09:54:04.634Z,67.36
2023-05-11T09:55:04.629Z,67.16
2023-05-11T09:56:04.648Z,67.55
2023-05-11T09:57:04.637Z,68.01
2023-05-11T09:58:04.613Z,66.69
2023-05-11T09:59:04.611Z,66.86
2023-05-11T10:00:04.622Z,66.94
2023-05-11T10:01:04.644Z,66.88
2023-05-11T10:02:04.661Z,66.83
2023-05-11T10:03:04.771Z,66.61
2023-05-11T10:04:17.884Z,67.82
2023-05-11T10:05:05.556Z,67.89
2023-05-11T10:06:04.613Z,68.00
2023-05-11T10:07:04.612Z,68.04
2023-05-11T10:08:04.547Z,67.86
2023-05-11T10:09:04.552Z,67.59
2023-05-11T10:10:04.509Z,67.31
2023-05-11T10:11:04.521Z,67.10
2023-05-11T10:12:04.525Z,67.38
2023-05-11T10:13:04.688Z,68.08
2023-05-11T10:14:04.552Z,67.90
2023-05-11T10:15:04.513Z,68.14
2023-05-11T10:16:04.499Z,67.73
2023-05-11T10:17:04.490Z,67.50
2023-05-11T10:18:04.542Z,67.28
2023-05-11T10:19:04.536Z,66.87
2023-05-11T10:20:04.484Z,67.12
2023-05-11T10:21:04.485Z,66.80
2023-05-11T10:22:04.539Z,66.85
2023-05-11T10:23:04.501Z,67.30
2023-05-11T10:24:04.585Z,67.03
2023-05-11T10:25:04.632Z,67.32
2023-05-11T10:26:04.670Z,67.48
2023-05-11T10:27:04.737Z,67.36
2023-05-11T10:28:04.730Z,67.37
2023-05-11T10:29:04.795Z,67.82
2023-05-11T10:30:04.844Z,67.57
2023-05-11T10:31:04.840Z,67.74
2023-05-11T10:32:04.873Z,67.51
2023-05-11T10:33:04.889Z,67.95
2023-05-11T10:34:04.915Z,68.66
2023-05-11T10:35:04.915Z,68.43
2023-05-11T10:36:04.945Z,68.57
2023-05-11T10:37:04.944Z,67.76
2023-05-11T10:38:04.958Z,67.77
2023-05-11T10:39:05.500Z,67.38
2023-05-11T10:40:05.058Z,67.19
2023-05-11T10:41:05.116Z,67.93
2023-05-11T10:42:05.127Z,68.20
2023-05-11T10:43:05.173Z,66.63
2023-05-11T10:44:05.198Z,67.09
2023-05-11T10:45:05.204Z,67.22
2023-05-11T10:46:05.336Z,66.85
2023-05-11T10:47:05.295Z,66.81
2023-05-11T10:48:05.416Z,66.70
2023-05-11T10:49:05.367Z,65.64
2023-05-11T10:50:05.409Z,66.57
2023-05-11T10:51:05.480Z,66.09
2023-05-11T10:52:05.481Z,65.94
2023-05-11T10:53:05.526Z,65.92
2023-05-11T10:54:05.620Z,66.49
2023-05-11T10:55:05.598Z,66.79
2023-05-11T10:56:05.617Z,66.81
2023-05-11T10:57:05.647Z,66.43
2023-05-11T10:58:05.650Z,66.58
2023-05-11T10:59:05.694Z,66.62
2023-05-11T11:00:05.766Z,67.47
2023-05-11T11:01:05.885Z,67.90
2023-05-11T11:02:05.755Z,67.31
2023-05-11T11:03:05.829Z,67.77
2023-05-11T11:04:05.809Z,68.30
2023-05-11T11:05:05.880Z,66.98
2023-05-11T11:06:05.907Z,67.65
2023-05-11T11:07:05.900Z,67.26
2023-05-11T11:08:05.897Z,66.51
2023-05-11T11:09:05.899Z,67.08
2023-05-11T11:10:05.896Z,66.56
2023-05-11T11:11:06.699Z,66.63
2023-05-11T11:12:05.970Z,66.13
2023-05-11T11:13:05.956Z,64.72
2023-05-11T11:14:05.996Z,65.05
2023-05-11T11:15:05.991Z,65.59
2023-05-11T11:16:06.043Z,64.90
2023-05-11T11:17:06.082Z,65.44
2023-05-11T11:18:06.076Z,64.85
2023-05-11T11:19:06.163Z,64.43
2023-05-11T11:20:06.092Z,64.12
2023-05-11T11:21:06.101Z,64.42
2023-05-11T11:22:06.083Z,63.58
2023-05-11T11:23:06.331Z,63.01
2023-05-11T11:24:06.239Z,61.85
2023-05-11T11:25:06.155Z,61.56
2023-05-11T11:26:06.138Z,62.24
2023-05-11T11:27:06.186Z,63.12
2023-05-11T11:28:06.182Z,63.56
2023-05-11T11:29:06.234Z,62.72
2023-05-11T11:30:06.269Z,62.42
2023-05-11T11:31:06.380Z,62.29
2023-05-11T11:32:06.367Z,61.93
2023-05-11T11:33:06.423Z,62.00
2023-05-11T11:34:06.415Z,61.61
2023-05-11T11:35:06.412Z,62.90
2023-05-11T11:36:06.463Z,63.34
2023-05-11T11:37:06.554Z,62.76
2023-05-11T11:38:06.458Z,61.26
2023-05-11T11:39:06.495Z,61.99
2023-05-11T11:40:14.766Z,62.43
2023-05-11T11:41:07.543Z,63.11
2023-05-11T11:42:06.519Z,63.47
2023-05-11T11:43:06.481Z,62.95
2023-05-11T11:44:06.526Z,61.39
2023-05-11T11:45:06.481Z,61.17
2023-05-11T11:46:06.517Z,62.18
2023-05-11T11:47:06.469Z,63.09
2023-05-11T11:48:06.498Z,63.10
2023-05-11T11:49:06.449Z,62.92
2023-05-11T11:50:06.459Z,62.86
2023-05-11T11:51:06.423Z,63.52
2023-05-11T11:52:06.422Z,63.33
2023-05-11T11:53:06.413Z,62.79
2023-05-11T11:54:06.451Z,61.83
2023-05-11T11:55:06.425Z,60.76
2023-05-11T11:56:06.429Z,62.82
2023-05-11T11:57:06.460Z,63.12
2023-05-11T11:58:06.570Z,63.55
2023-05-11T11:59:06.580Z,63.61
2023-05-11T12:00:06.642Z,62.98
2023-05-11T12:01:06.626Z,60.94
2023-05-11T12:02:06.677Z,61.46
2023-05-11T12:03:06.819Z,61.26
2023-05-11T12:04:06.848Z,61.99
2023-05-11T12:05:06.955Z,62.40
2023-05-11T12:06:06.875Z,61.57
2023-05-11T12:07:06.874Z,62.07
2023-05-11T12:08:06.831Z,61.39
2023-05-11T12:09:07.726Z,62.05
2023-05-11T12:10:07.002Z,63.01
2023-05-11T12:11:06.920Z,62.33
2023-05-11T12:12:06.944Z,63.05
2023-05-11T12:13:07.002Z,63.03
2023-05-11T12:14:06.968Z,63.70
2023-05-11T12:15:06.948Z,62.73
2023-05-11T12:16:07.010Z,62.96
2023-05-11T12:17:06.988Z,61.47
2023-05-11T12:18:07.036Z,61.38
2023-05-11T12:19:07.090Z,60.51
2023-05-11T12:20:07.043Z,61.69
2023-05-11T12:21:07.101Z,61.61
2023-05-11T12:22:07.121Z,61.81
2023-05-11T12:23:07.119Z,61.27
2023-05-11T12:24:07.135Z,61.45
2023-05-11T12:25:07.143Z,62.33
2023-05-11T12:26:07.191Z,62.39
2023-05-11T12:27:07.195Z,62.40
2023-05-11T12:28:07.240Z,62.46
2023-05-11T12:29:07.263Z,61.70
2023-05-11T12:30:07.320Z,61.12
2023-05-11T12:31:07.278Z,60.22
2023-05-11T12:32:07.375Z,61.34
2023-05-11T12:33:07.374Z,63.16
2023-05-11T12:34:07.338Z,64.39
2023-05-11T12:35:07.408Z,63.48
2023-05-11T12:36:07.455Z,62.21
2023-05-11T12:37:07.481Z,61.50
2023-05-11T12:38:07.480Z,62.48
2023-05-11T12:39:07.521Z,62.34
2023-05-11T12:40:07.524Z,62.26
2023-05-11T12:41:07.566Z,63.59
2023-05-11T12:42:07.575Z,63.75
2023-05-11T12:43:07.643Z,62.93
2023-05-11T12:44:07.571Z,63.87
2023-05-11T12:45:07.626Z,64.32
2023-05-11T12:46:07.689Z,64.14
2023-05-11T12:47:07.631Z,63.90
2023-05-11T12:48:07.743Z,63.26
2023-05-11T12:49:07.692Z,64.52
2023-05-11T12:50:07.744Z,63.57
2023-05-11T12:51:07.722Z,63.89
2023-05-11T12:52:07.885Z,64.67
2023-05-11T12:53:07.827Z,63.88
2023-05-11T12:54:07.814Z,64.17